Time;durP1;ratioP1;P1;durP2;ratioP2;P2;SDS_P1;SDS_P2;PMS_P1;PMS_P2;Temp;Humidity;BMP_temperature;BMP_pressure;BME280_temperature;BME280_humidity;BME280_pressure;Samples;Min_cycle;Max_cycle;Signal;HPM_P1;HPM_P2
2022/04/07 00:00:05;;;;;;;19.00;8.47;;;;;;;8.13;88.50;98302.16;4185921;28;20256;-64
2022/04/07 00:02:31;;;;;;;17.90;8.77;;;;;;;8.18;87.92;98301.63;4184656;28;22111;-65
2022/04/07 00:04:58;;;;;;;13.80;7.67;;;;;;;8.16;87.99;98295.69;4177896;28;20238;-63
2022/04/07 00:07:24;;;;;;;16.17;8.20;;;;;;;8.19;87.47;98296.16;4193286;28;21413;-63
2022/04/07 00:09:51;;;;;;;16.47;8.17;;;;;;;8.16;87.24;98285.91;4186603;28;23273;-64
2022/04/07 00:12:18;;;;;;;15.23;7.73;;;;;;;8.13;87.43;98286.28;4192516;28;20248;-66
2022/04/07 00:14:44;;;;;;;16.00;7.63;;;;;;;8.15;87.15;98289.56;4192749;28;21695;-64
2022/04/07 00:17:11;;;;;;;16.67;8.00;;;;;;;8.11;87.60;98288.28;4185383;28;21075;-63
2022/04/07 00:19:38;;;;;;;14.23;7.77;;;;;;;8.23;86.65;98283.34;4181440;28;20294;-62
2022/04/07 00:22:04;;;;;;;15.00;7.53;;;;;;;8.27;86.67;98279.34;4192623;28;20237;-64
2022/04/07 00:24:31;;;;;;;13.83;7.80;;;;;;;8.21;86.48;98280.06;4190318;28;21292;-63
2022/04/07 00:26:57;;;;;;;18.40;7.37;;;;;;;8.17;86.88;98270.81;4174704;28;20819;-63
2022/04/07 00:29:24;;;;;;;14.90;7.67;;;;;;;8.21;86.38;98272.09;4196892;28;20229;-63
2022/04/07 00:31:57;;;;;;;14.00;7.70;;;;;;;8.21;85.99;98261.50;4198207;28;20251;-66
2022/04/07 00:34:24;;;;;;;15.67;7.67;;;;;;;8.21;85.82;98270.28;4195443;28;20237;-64
2022/04/07 00:36:51;;;;;;;15.23;7.13;;;;;;;8.27;85.88;98265.28;4191756;28;20304;-63
2022/04/07 00:39:17;;;;;;;15.37;7.13;;;;;;;8.25;85.55;98257.50;4179961;28;22285;-64
2022/04/07 00:41:45;;;;;;;12.23;6.50;;;;;;;8.26;85.79;98256.47;4198482;28;20232;-64
2022/04/07 00:44:13;;;;;;;15.70;7.43;;;;;;;8.17;85.42;98255.78;4186625;28;21864;-64
2022/04/07 00:46:40;;;;;;;16.57;7.47;;;;;;;8.19;85.65;98251.13;4172444;28;20237;-65
2022/04/07 00:49:08;;;;;;;13.23;7.13;;;;;;;8.28;84.93;98251.81;4187344;28;20376;-63
2022/04/07 00:51:37;;;;;;;12.03;7.23;;;;;;;8.26;85.01;98251.19;4179251;28;26512;-65
2022/04/07 00:54:05;;;;;;;15.40;7.83;;;;;;;8.31;84.70;98235.56;4198092;28;21025;-63
2022/04/07 00:56:35;;;;;;;17.13;7.13;;;;;;;8.33;84.77;98238.03;4166263;28;22316;-66
2022/04/07 00:59:02;;;;;;;12.07;6.20;;;;;;;8.32;84.26;98236.38;4174201;28;20742;-66
2022/04/07 01:01:30;;;;;;;13.27;7.13;;;;;;;8.31;84.37;98238.22;4172078;28;20644;-62
2022/04/07 01:03:57;;;;;;;12.90;6.90;;;;;;;8.37;84.18;98237.47;4206542;28;20240;-59
2022/04/07 01:06:24;;;;;;;14.80;6.80;;;;;;;8.36;83.65;98233.19;4160721;28;20235;-64
2022/04/07 01:08:51;;;;;;;11.10;6.30;;;;;;;8.35;84.00;98234.19;4188200;28;21213;-62
2022/04/07 01:11:17;;;;;;;16.27;6.23;;;;;;;8.35;83.92;98230.72;4179714;28;21377;-63
2022/04/07 01:13:51;;;;;;;14.07;6.97;;;;;;;8.38;84.02;98233.81;4188089;28;20234;-65
2022/04/07 01:16:20;;;;;;;14.83;6.97;;;;;;;8.48;83.29;98222.16;4174064;28;23458;-64
2022/04/07 01:18:46;;;;;;;13.37;6.53;;;;;;;8.46;83.00;98217.03;4183627;28;20247;-65
2022/04/07 01:21:14;;;;;;;12.97;7.07;;;;;;;8.37;83.67;98218.09;4187508;28;21964;-64
2022/04/07 01:23:45;;;;;;;14.67;6.73;;;;;;;8.45;83.37;98210.91;4191495;28;20323;-65
2022/04/07 01:26:12;;;;;;;16.33;6.70;;;;;;;8.48;83.45;98214.19;4195039;28;20228;-63
2022/04/07 01:28:38;;;;;;;14.50;6.50;;;;;;;8.42;83.75;98215.75;4186972;28;20664;-64
2022/04/07 01:31:05;;;;;;;11.73;6.80;;;;;;;8.51;83.46;98209.31;4181682;28;20305;-64
2022/04/07 01:33:32;;;;;;;15.33;6.70;;;;;;;8.57;83.00;98218.34;4174766;28;20405;-63
2022/04/07 01:35:59;;;;;;;14.97;7.00;;;;;;;8.59;83.39;98216.34;4184424;28;21200;-62
2022/04/07 01:38:26;;;;;;;12.80;6.67;;;;;;;8.52;83.18;98215.44;4170567;28;22208;-65
2022/04/07 01:40:52;;;;;;;15.67;6.60;;;;;;;8.58;83.30;98210.22;4190236;28;20990;-63
2022/04/07 01:43:19;;;;;;;13.07;6.57;;;;;;;8.57;83.06;98213.03;4177396;28;21329;-63
2022/04/07 01:45:46;;;;;;;11.53;6.20;;;;;;;8.55;83.38;98215.09;4204194;28;20243;-64
2022/04/07 01:48:13;;;;;;;12.30;6.53;;;;;;;8.56;83.02;98206.94;4167762;28;20276;-62
2022/04/07 01:50:39;;;;;;;12.23;6.40;;;;;;;8.59;83.02;98205.72;4181861;28;20334;-63
2022/04/07 01:53:06;;;;;;;13.47;7.30;;;;;;;8.68;82.64;98201.16;4179664;28;21234;-63
2022/04/07 01:55:33;;;;;;;14.63;7.10;;;;;;;8.58;83.14;98198.81;4174857;28;21612;-64
2022/04/07 01:57:59;;;;;;;16.97;6.83;;;;;;;8.53;83.70;98206.50;4178003;28;20331;-63
2022/04/07 02:00:26;;;;;;;17.30;7.30;;;;;;;8.54;83.42;98200.19;4167496;28;20236;-64
2022/04/07 02:02:52;;;;;;;14.53;7.00;;;;;;;8.54;83.35;98201.00;4205395;28;22447;-64
2022/04/07 02:05:19;;;;;;;13.10;6.93;;;;;;;8.51;83.83;98197.91;4192637;28;20225;-64
2022/04/07 02:07:45;;;;;;;14.90;6.90;;;;;;;8.54;83.66;98201.00;4180049;28;20261;-62
2022/04/07 02:10:13;;;;;;;13.47;6.93;;;;;;;8.45;84.00;98195.00;4170081;28;22401;-60
2022/04/07 02:12:41;;;;;;;12.97;7.07;;;;;;;8.48;84.43;98193.00;4192580;28;20236;-64
2022/04/07 02:15:09;;;;;;;13.57;7.00;;;;;;;8.52;83.95;98178.34;4177904;28;20241;-61
2022/04/07 02:17:35;;;;;;;15.40;7.17;;;;;;;8.54;83.45;98181.63;4179067;28;20280;-65
2022/04/07 02:20:05;;;;;;;16.70;7.33;;;;;;;8.58;84.05;98190.84;4171045;28;20295;-61
2022/04/07 02:22:31;;;;;;;15.33;6.93;;;;;;;8.63;83.53;98191.91;4205790;28;20221;-62
2022/04/07 02:25:01;;;;;;;20.40;7.70;;;;;;;8.68;83.77;98194.00;4173268;28;23354;-61
2022/04/07 02:27:39;;;;;;;17.40;7.80;;;;;;;8.67;83.26;98187.06;4172277;28;21811;-63
2022/04/07 02:30:13;;;;;;;12.33;6.73;;;;;;;8.61;83.87;98171.91;4170087;28;20257;-62
2022/04/07 02:32:41;;;;;;;18.43;7.43;;;;;;;8.59;84.15;98179.22;4183238;28;20243;-63
2022/04/07 02:35:09;;;;;;;16.67;7.93;;;;;;;8.58;84.36;98182.91;4182745;28;20236;-61
2022/04/07 02:37:35;;;;;;;14.40;7.30;;;;;;;8.57;84.24;98175.94;4197470;28;20240;-64
2022/04/07 02:40:01;;;;;;;15.80;8.10;;;;;;;8.58;84.11;98167.81;4205458;28;20237;-65
2022/04/07 02:42:27;;;;;;;16.33;7.07;;;;;;;8.57;84.14;98170.63;4191597;28;21733;-69
2022/04/07 02:44:54;;;;;;;15.47;7.93;;;;;;;8.65;83.91;98159.94;4194963;28;21217;-64
2022/04/07 02:47:32;;;;;;;15.93;7.50;;;;;;;8.61;84.25;98156.00;4166371;28;20241;-63
2022/04/07 02:49:59;;;;;;;15.20;7.70;;;;;;;8.62;83.86;98153.16;4180644;28;21419;-63
2022/04/07 02:52:26;;;;;;;16.03;7.63;;;;;;;8.71;83.65;98153.88;4182765;28;21478;-63
2022/04/07 02:54:52;;;;;;;14.20;7.63;;;;;;;8.65;83.85;98151.97;4205622;28;20236;-62
2022/04/07 02:57:22;;;;;;;17.03;7.87;;;;;;;8.68;84.08;98143.63;4192042;28;20240;-64
2022/04/07 02:59:49;;;;;;;17.50;7.73;;;;;;;8.67;83.80;98142.00;4189725;28;22999;-62
2022/04/07 03:02:16;;;;;;;14.80;7.90;;;;;;;8.68;83.76;98135.69;4172154;28;20233;-63
2022/04/07 03:04:43;;;;;;;15.00;8.80;;;;;;;8.65;84.21;98128.91;4191182;28;20233;-64
2022/04/07 03:07:10;;;;;;;13.63;7.50;;;;;;;8.64;84.41;98132.59;4185602;28;23798;-62
2022/04/07 03:09:36;;;;;;;16.37;8.10;;;;;;;8.58;84.32;98129.88;4194339;28;20236;-63
2022/04/07 03:12:03;;;;;;;20.60;7.90;;;;;;;8.67;84.02;98131.41;4176360;28;21014;-63
2022/04/07 03:14:30;;;;;;;17.97;8.47;;;;;;;8.62;84.15;98136.44;4162035;28;20315;-62
2022/04/07 03:16:57;;;;;;;16.87;8.20;;;;;;;8.67;83.59;98139.34;4186249;28;20234;-65
2022/04/07 03:19:24;;;;;;;15.93;8.50;;;;;;;8.68;83.90;98138.31;4185487;28;20256;-62
2022/04/07 03:21:50;;;;;;;16.43;8.07;;;;;;;8.70;84.13;98133.66;4184511;28;21042;-63
2022/04/07 03:24:17;;;;;;;18.37;8.20;;;;;;;8.73;83.59;98133.28;4190255;28;22146;-62
2022/04/07 03:27:05;;;;;;;17.07;8.27;;;;;;;8.76;83.73;98132.91;4194002;28;20232;-63
2022/04/07 03:29:32;;;;;;;19.13;9.20;;;;;;;8.77;83.42;98129.22;4180618;28;20236;-62
2022/04/07 03:31:59;;;;;;;20.13;8.93;;;;;;;8.75;83.36;98125.13;4170132;28;22482;-62
2022/04/07 03:34:25;;;;;;;18.17;8.90;;;;;;;8.76;83.67;98127.59;4189706;28;20690;-63
2022/04/07 03:36:52;;;;;;;16.17;7.77;;;;;;;8.81;83.34;98124.38;4180112;28;20531;-62
2022/04/07 03:39:19;;;;;;;17.70;7.97;;;;;;;8.84;82.77;98124.00;4191924;28;20241;-61
2022/04/07 03:41:45;;;;;;;16.00;8.30;;;;;;;8.82;82.69;98123.38;4190361;28;20246;-63
2022/04/07 03:44:12;;;;;;;13.80;7.87;;;;;;;8.77;82.95;98123.94;4188641;28;20237;-62
2022/04/07 03:46:39;;;;;;;18.43;8.33;;;;;;;8.75;82.64;98125.13;4185322;28;20740;-66
2022/04/07 03:49:06;;;;;;;16.77;8.63;;;;;;;8.75;83.15;98125.94;4195891;28;20240;-62
2022/04/07 03:51:32;;;;;;;18.53;9.20;;;;;;;8.75;82.43;98123.28;4175700;28;21270;-65
2022/04/07 03:53:59;;;;;;;20.00;8.77;;;;;;;8.72;82.63;98122.88;4189625;28;20287;-64
2022/04/07 03:56:25;;;;;;;18.20;8.53;;;;;;;8.69;82.47;98132.03;4174570;28;25530;-63
2022/04/07 03:58:52;;;;;;;16.33;8.23;;;;;;;8.65;83.10;98136.06;4197423;28;20236;-64
2022/04/07 04:01:18;;;;;;;17.40;9.03;;;;;;;8.62;82.99;98133.81;4187688;28;23166;-60
2022/04/07 04:03:45;;;;;;;22.87;9.10;;;;;;;8.53;83.70;98137.59;4188485;28;20234;-63
2022/04/07 04:06:12;;;;;;;23.37;8.53;;;;;;;8.52;84.28;98135.91;4173649;28;20965;-61
2022/04/07 04:08:38;;;;;;;15.43;8.47;;;;;;;8.51;83.72;98136.94;4195249;28;20770;-63
2022/04/07 04:11:04;;;;;;;17.20;8.53;;;;;;;8.56;83.69;98137.19;4195801;28;20237;-63
2022/04/07 04:13:31;;;;;;;17.43;8.40;;;;;;;8.56;83.55;98139.84;4197765;28;20232;-65
2022/04/07 04:15:58;;;;;;;19.93;8.20;;;;;;;8.54;83.35;98137.38;4194434;28;20433;-61
2022/04/07 04:18:25;;;;;;;14.73;7.90;;;;;;;8.49;84.00;98133.66;4171116;28;20330;-63
2022/04/07 04:20:51;;;;;;;16.60;8.00;;;;;;;8.53;83.80;98138.41;4196163;28;20253;-62
2022/04/07 04:23:18;;;;;;;21.57;8.43;;;;;;;8.47;83.89;98135.66;4196004;28;25500;-64
2022/04/07 04:25:46;;;;;;;15.93;8.53;;;;;;;8.48;83.76;98145.28;4192089;28;21486;-62
2022/04/07 04:28:13;;;;;;;20.70;8.47;;;;;;;8.57;83.84;98149.44;4158289;28;21270;-63
2022/04/07 04:30:40;;;;;;;24.63;8.73;;;;;;;8.60;83.34;98149.06;4197026;28;20712;-63
2022/04/07 04:33:07;;;;;;;15.70;8.07;;;;;;;8.54;82.98;98149.81;4208366;28;20236;-61
2022/04/07 04:35:33;;;;;;;18.33;9.23;;;;;;;8.56;83.08;98140.66;4186576;28;20669;-63
2022/04/07 04:38:00;;;;;;;21.60;8.87;;;;;;;8.50;83.75;98148.53;4177553;28;25798;-62
2022/04/07 04:40:26;;;;;;;19.07;8.60;;;;;;;8.47;83.23;98146.28;4197242;28;21781;-62
2022/04/07 04:42:53;;;;;;;20.30;8.73;;;;;;;8.44;83.96;98143.00;4185782;28;20243;-62
2022/04/07 04:45:20;;;;;;;27.97;15.50;;;;;;;8.39;83.89;98148.00;4184809;28;21203;-63
2022/04/07 04:47:46;;;;;;;19.73;9.37;;;;;;;8.37;84.01;98144.72;4165805;28;21416;-65
2022/04/07 04:50:13;;;;;;;22.23;8.93;;;;;;;8.38;84.26;98154.31;4183959;28;20233;-62
2022/04/07 04:52:40;;;;;;;18.10;8.87;;;;;;;8.47;83.96;98147.09;4206123;28;20322;-61
2022/04/07 04:55:07;;;;;;;19.43;9.00;;;;;;;8.51;83.55;98145.72;4186851;28;21660;-62
2022/04/07 04:57:33;;;;;;;18.10;9.37;;;;;;;8.47;84.11;98138.31;4168166;28;20233;-62
2022/04/07 05:00:00;;;;;;;18.87;8.40;;;;;;;8.57;83.56;98144.97;4183020;28;20240;-62
2022/04/07 05:02:26;;;;;;;17.37;9.40;;;;;;;8.62;82.94;98144.41;4180344;28;20266;-61
2022/04/07 05:04:53;;;;;;;19.33;9.23;;;;;;;8.60;82.58;98141.94;4204427;28;21893;-62
2022/04/07 05:07:19;;;;;;;18.23;8.93;;;;;;;8.68;82.68;98137.50;4183123;28;20233;-62
2022/04/07 05:09:46;;;;;;;19.93;9.77;;;;;;;8.77;82.14;98145.16;4197010;28;20311;-62
2022/04/07 05:12:12;;;;;;;17.13;9.07;;;;;;;8.76;81.61;98148.00;4173407;28;20242;-64
2022/04/07 05:14:39;;;;;;;21.90;9.33;;;;;;;8.73;81.92;98146.53;4193812;28;25646;-62
2022/04/07 05:17:07;;;;;;;20.83;9.43;;;;;;;8.71;81.65;98151.22;4201837;28;20322;-62
2022/04/07 05:19:33;;;;;;;20.37;9.40;;;;;;;8.80;81.62;98138.63;4184290;28;21085;-64
2022/04/07 05:22:00;;;;;;;20.17;8.90;;;;;;;8.87;81.04;98140.38;4176743;28;21924;-61
2022/04/07 05:24:26;;;;;;;24.67;9.57;;;;;;;8.99;80.79;98137.16;4181118;28;23042;-61
2022/04/07 05:26:53;;;;;;;16.73;9.00;;;;;;;9.09;80.41;98135.84;4195331;28;20347;-62
2022/04/07 05:29:20;;;;;;;19.53;8.87;;;;;;;9.14;80.01;98129.16;4191035;28;21777;-64
2022/04/07 05:31:46;;;;;;;19.90;9.00;;;;;;;9.15;79.75;98131.59;4180143;28;20239;-65
2022/04/07 05:34:13;;;;;;;18.33;8.93;;;;;;;9.15;79.75;98126.28;4175701;28;21437;-64
2022/04/07 05:36:42;;;;;;;22.90;9.03;;;;;;;9.21;78.97;98125.53;4176634;28;21216;-65
2022/04/07 05:39:08;;;;;;;17.83;9.13;;;;;;;9.32;78.66;98131.28;4172701;28;20230;-65
2022/04/07 05:41:35;;;;;;;21.50;9.33;;;;;;;9.48;77.80;98136.31;4205517;28;20300;-61
2022/04/07 05:44:01;;;;;;;21.87;9.17;;;;;;;9.66;77.30;98139.28;4177494;28;20256;-64
2022/04/07 05:46:28;;;;;;;21.07;9.10;;;;;;;9.76;76.67;98128.28;4173163;28;20230;-62
2022/04/07 05:48:55;;;;;;;17.27;8.90;;;;;;;9.85;75.65;98128.97;4163193;28;20243;-64
2022/04/07 05:51:22;;;;;;;19.10;8.57;;;;;;;10.05;74.83;98134.38;4183227;28;21822;-67
2022/04/07 05:53:48;;;;;;;18.60;8.33;;;;;;;10.13;74.27;98128.88;4181979;28;20501;-64
2022/04/07 05:56:15;;;;;;;22.53;8.20;;;;;;;10.27;73.88;98127.06;4177694;28;20360;-63
2022/04/07 05:58:41;;;;;;;17.30;7.77;;;;;;;10.39;72.92;98111.41;4197363;28;20230;-66
2022/04/07 06:01:08;;;;;;;19.73;7.77;;;;;;;10.48;71.55;98121.63;4200268;28;22189;-63
2022/04/07 06:03:36;;;;;;;18.80;8.20;;;;;;;10.51;71.29;98115.09;4180908;28;20230;-64
2022/04/07 06:06:02;;;;;;;15.73;7.37;;;;;;;10.52;69.94;98106.94;4188188;28;25389;-63
2022/04/07 06:08:33;;;;;;;16.30;7.57;;;;;;;10.49;69.79;98107.34;4167416;28;20407;-65
2022/04/07 06:10:59;;;;;;;14.33;7.07;;;;;;;10.63;69.41;98107.34;4184881;28;20232;-61
2022/04/07 06:13:26;;;;;;;14.10;6.57;;;;;;;10.71;69.15;98118.63;4156005;28;20250;-63
2022/04/07 06:15:53;;;;;;;15.23;6.33;;;;;;;10.80;68.29;98115.78;4192087;28;20417;-65
2022/04/07 06:18:19;;;;;;;15.87;6.80;;;;;;;10.99;67.11;98114.94;4184185;28;20233;-62
2022/04/07 06:20:48;;;;;;;17.13;6.03;;;;;;;11.12;66.58;98108.78;4194749;28;20332;-63
2022/04/07 06:23:16;;;;;;;15.27;6.30;;;;;;;11.21;65.98;98104.91;4213583;28;23656;-64
2022/04/07 06:25:42;;;;;;;14.23;6.07;;;;;;;11.29;65.75;98102.03;4202503;28;20231;-63
2022/04/07 06:28:10;;;;;;;11.93;5.97;;;;;;;11.45;64.95;98103.44;4184858;28;20241;-61
2022/04/07 06:30:37;;;;;;;14.37;6.13;;;;;;;11.33;65.96;98095.28;4203149;28;20724;-62
2022/04/07 06:33:04;;;;;;;14.17;6.20;;;;;;;11.46;64.77;98096.28;4180708;28;20650;-60
2022/04/07 06:35:30;;;;;;;15.67;6.37;;;;;;;11.56;65.46;98089.47;4199764;28;25714;-64
2022/04/07 06:37:57;;;;;;;13.80;6.00;;;;;;;11.61;65.33;98095.00;4165584;28;20242;-62
2022/04/07 06:40:26;;;;;;;17.00;6.73;;;;;;;11.64;64.07;98092.97;4178060;28;20313;-64
2022/04/07 06:42:54;;;;;;;18.03;7.43;;;;;;;11.61;64.16;98092.34;4222672;28;20415;-63
2022/04/07 06:45:27;;;;;;;16.07;6.27;;;;;;;11.61;64.40;98092.34;4200219;28;20309;-64
2022/04/07 06:47:55;;;;;;;14.20;5.80;;;;;;;11.69;63.33;98085.97;4197710;28;20245;-64
2022/04/07 06:50:23;;;;;;;10.10;5.27;;;;;;;11.76;63.16;98086.75;4165621;28;20292;-64
2022/04/07 06:52:51;;;;;;;17.83;5.63;;;;;;;11.93;62.98;98086.31;4213418;28;20272;-64
2022/04/07 06:55:18;;;;;;;16.13;5.77;;;;;;;12.20;61.66;98082.50;4181459;28;21179;-63
2022/04/07 06:57:55;;;;;;;15.27;5.60;;;;;;;12.39;60.29;98077.25;4197864;28;21846;-63
2022/04/07 07:00:24;;;;;;;11.73;5.77;;;;;;;12.94;58.96;98076.66;4197671;28;20717;-63
2022/04/07 07:02:52;;;;;;;13.37;4.97;;;;;;;14.09;54.09;98092.97;4206487;28;20243;-62
2022/04/07 07:05:25;;;;;;;10.97;5.23;;;;;;;15.29;50.26;98095.69;4206506;28;21635;-61
2022/04/07 07:07:51;;;;;;;16.47;5.20;;;;;;;16.63;45.88;98098.19;4250113;28;20245;-64
2022/04/07 07:10:25;;;;;;;11.90;5.07;;;;;;;15.97;46.61;98095.06;4213373;28;23125;-65
2022/04/07 07:12:52;;;;;;;10.30;4.63;;;;;;;14.67;50.51;98094.22;4226420;28;20233;-65
2022/04/07 07:15:23;;;;;;;9.43;4.30;;;;;;;13.55;54.01;98083.09;4217085;28;21702;-65
2022/04/07 07:17:51;;;;;;;12.77;4.37;;;;;;;13.05;57.12;98075.94;4185547;28;20250;-64
2022/04/07 07:20:18;;;;;;;11.80;5.00;;;;;;;13.30;57.68;98078.63;4233620;28;21173;-64
2022/04/07 07:22:45;;;;;;;13.60;4.50;;;;;;;13.12;57.18;98070.56;4253263;28;20239;-62
2022/04/07 07:25:12;;;;;;;11.93;4.60;;;;;;;12.88;58.46;98073.00;4275025;28;20229;-65
2022/04/07 07:27:40;;;;;;;10.67;4.70;;;;;;;12.93;56.97;98070.50;4269477;28;20264;-64
2022/04/07 07:30:11;;;;;;;12.20;4.37;;;;;;;12.59;58.12;98059.25;4190133;28;21318;-63
2022/04/07 07:32:46;;;;;;;9.97;4.20;;;;;;;12.59;57.83;98064.59;4189295;28;21824;-64
2022/04/07 07:35:13;;;;;;;10.40;4.53;;;;;;;12.68;58.61;98073.97;4199526;28;20236;-64
2022/04/07 07:37:54;;;;;;;11.73;4.73;;;;;;;12.52;58.84;98063.00;4223504;28;20299;-65
2022/04/07 07:40:23;;;;;;;9.10;4.17;;;;;;;13.27;55.61;98069.22;4232251;28;21367;-65
2022/04/07 07:42:53;;;;;;;8.20;4.03;;;;;;;13.85;53.71;98075.94;4253221;28;20230;-66
2022/04/07 07:45:20;;;;;;;11.57;5.73;;;;;;;14.59;50.63;98080.38;4214229;28;21543;-63
2022/04/07 07:48:07;;;;;;;16.67;4.37;;;;;;;14.42;51.30;98072.13;4242147;28;20378;-64
2022/04/07 07:50:33;;;;;;;8.77;3.90;;;;;;;14.60;51.31;98071.28;4236197;28;21495;-63
2022/04/07 07:53:02;;;;;;;11.87;4.13;;;;;;;14.89;50.59;98070.41;4251802;28;20913;-64
2022/04/07 07:55:35;;;;;;;8.77;3.37;;;;;;;14.19;51.02;98079.03;4225464;28;21155;-63
2022/04/07 07:58:02;;;;;;;10.07;3.77;;;;;;;13.94;51.74;98071.94;4192701;28;20238;-63
2022/04/07 08:00:32;;;;;;;8.73;3.77;;;;;;;14.48;51.08;98076.56;4225232;28;22680;-62
2022/04/07 08:02:59;;;;;;;8.47;3.93;;;;;;;15.11;48.86;98086.72;4276958;28;20621;-64
2022/04/07 08:05:25;;;;;;;10.10;4.07;;;;;;;16.01;46.55;98080.13;4224715;28;21370;-61
2022/04/07 08:07:52;;;;;;;11.93;4.10;;;;;;;16.89;43.94;98085.22;4226351;28;22595;-62
2022/04/07 08:10:19;;;;;;;11.03;4.53;;;;;;;16.45;45.91;98082.28;4207887;28;21132;-60
2022/04/07 08:12:46;;;;;;;11.00;4.37;;;;;;;16.86;42.20;98091.91;4244765;28;25457;-62
2022/04/07 08:15:12;;;;;;;10.47;4.63;;;;;;;16.32;43.45;98083.41;4250337;28;21879;-64
2022/04/07 08:17:39;;;;;;;16.40;3.90;;;;;;;15.90;44.23;98075.63;4338407;28;20325;-69
2022/04/07 08:20:10;;;;;;;11.83;4.20;;;;;;;15.56;45.61;98077.28;4198714;28;20268;-68
2022/04/07 08:22:36;;;;;;;13.90;4.57;;;;;;;15.89;44.99;98078.53;4221441;28;22226;-64
2022/04/07 08:25:03;;;;;;;8.23;4.40;;;;;;;15.97;43.78;98067.44;4240229;28;21958;-64
2022/04/07 08:27:30;;;;;;;12.07;3.97;;;;;;;15.29;45.21;98064.38;4226023;28;20237;-64
2022/04/07 08:29:57;;;;;;;9.23;3.93;;;;;;;15.20;46.88;98063.91;4212905;28;20241;-65
2022/04/07 08:32:23;;;;;;;11.83;4.30;;;;;;;15.40;45.64;98070.75;4269385;28;20282;-63
2022/04/07 08:34:50;;;;;;;6.93;3.90;;;;;;;15.09;45.23;98062.03;4228741;28;20288;-62
2022/04/07 08:37:20;;;;;;;9.60;3.53;;;;;;;15.20;45.88;98061.22;4221443;28;20961;-62
2022/04/07 08:39:47;;;;;;;14.03;4.37;;;;;;;15.36;47.34;98062.38;4213261;28;20293;-63
2022/04/07 08:42:13;;;;;;;9.70;3.87;;;;;;;15.18;45.90;98047.25;4200212;28;20269;-64
2022/04/07 08:44:40;;;;;;;9.30;4.07;;;;;;;14.68;47.80;98053.03;4226598;28;20231;-62
2022/04/07 08:47:07;;;;;;;8.97;4.47;;;;;;;14.33;49.12;98037.69;4249998;28;20240;-62
2022/04/07 08:49:37;;;;;;;8.13;4.60;;;;;;;13.92;49.93;98052.63;4204189;28;20249;-62
2022/04/07 08:52:04;;;;;;;10.63;4.73;;;;;;;13.97;51.00;98045.78;4214257;28;21073;-63
2022/04/07 08:54:32;;;;;;;11.40;4.70;;;;;;;13.84;52.75;98036.91;4205999;28;20811;-64
2022/04/07 08:56:58;;;;;;;12.57;4.33;;;;;;;14.21;52.07;98028.81;4223876;28;20266;-65
2022/04/07 08:59:30;;;;;;;13.03;4.43;;;;;;;14.33;51.21;98036.88;4209189;28;22558;-69
2022/04/07 09:02:04;;;;;;;7.87;4.80;;;;;;;14.01;51.66;98033.59;4198610;28;20722;-65
2022/04/07 09:04:32;;;;;;;11.83;5.23;;;;;;;14.69;50.90;98037.78;4188358;28;20244;-70
2022/04/07 09:06:58;;;;;;;11.20;5.13;;;;;;;14.74;51.16;98030.69;4192537;28;25044;-64
2022/04/07 09:09:25;;;;;;;9.33;5.00;;;;;;;15.15;47.63;98026.28;4195291;28;20249;-65
2022/04/07 09:11:54;;;;;;;10.00;4.70;;;;;;;15.24;48.11;98031.28;4183857;28;20310;-65
2022/04/07 09:14:20;;;;;;;8.67;4.60;;;;;;;14.61;49.26;98025.56;4173474;28;20236;-67
2022/04/07 09:16:57;;;;;;;10.33;5.20;;;;;;;14.47;49.83;98019.56;4250673;28;20673;-71
2022/04/07 09:19:23;;;;;;;12.10;4.90;;;;;;;13.93;51.32;98022.19;4237091;28;22525;-63
2022/04/07 09:22:09;;;;;;;9.90;5.50;;;;;;;13.90;51.74;98009.25;4251191;28;21061;-63
2022/04/07 09:24:40;;;;;;;11.60;4.80;;;;;;;13.99;52.70;98008.94;4271296;28;20232;-67
2022/04/07 09:27:11;;;;;;;8.30;4.70;;;;;;;14.29;50.91;97996.38;4196664;28;20432;-67
2022/04/07 09:29:39;;;;;;;15.50;4.60;;;;;;;14.80;49.51;97994.16;4216917;28;22843;-65
2022/04/07 09:32:26;;;;;;;13.37;4.93;;;;;;;14.72;50.91;98003.31;4233708;28;20232;-65
2022/04/07 09:34:55;;;;;;;10.63;4.13;;;;;;;14.77;51.09;97984.72;4192988;28;21422;-61
2022/04/07 09:37:23;;;;;;;8.10;3.90;;;;;;;14.86;48.26;97984.38;4270892;28;20263;-62
2022/04/07 09:39:51;;;;;;;11.27;4.17;;;;;;;14.62;49.63;97976.31;4230440;28;21617;-65
2022/04/07 09:42:24;;;;;;;10.50;4.10;;;;;;;14.68;49.09;97986.13;4228371;28;20235;-62
2022/04/07 09:44:56;;;;;;;10.83;4.03;;;;;;;14.81;48.54;97978.91;4211990;28;21775;-63
2022/04/07 09:47:23;;;;;;;9.80;4.37;;;;;;;14.93;48.67;97971.66;4228379;28;20253;-65
2022/04/07 09:49:50;;;;;;;11.87;4.10;;;;;;;15.22;49.61;97969.06;4237716;28;20234;-64
2022/04/07 09:52:22;;;;;;;7.57;4.03;;;;;;;15.15;46.77;97959.31;4212625;28;23105;-65
2022/04/07 09:54:51;;;;;;;9.97;4.07;;;;;;;15.00;47.88;97953.63;4246751;28;21012;-62
2022/04/07 09:57:21;;;;;;;8.63;4.10;;;;;;;14.70;48.31;97951.91;4241442;28;20993;-62
2022/04/07 09:59:48;;;;;;;7.70;4.00;;;;;;;14.89;49.20;97952.59;4222332;28;20224;-64
2022/04/07 10:02:16;;;;;;;7.33;3.47;;;;;;;14.88;49.05;97948.28;4209005;28;20242;-62
2022/04/07 10:04:43;;;;;;;7.87;3.37;;;;;;;14.91;47.44;97936.28;4230894;28;25307;-63
2022/04/07 10:07:11;;;;;;;9.17;3.63;;;;;;;14.87;46.71;97946.66;4215574;28;21719;-62
2022/04/07 10:09:40;;;;;;;6.63;3.40;;;;;;;14.77;46.75;97938.38;4174567;28;20679;-67
2022/04/07 10:12:09;;;;;;;9.20;3.43;;;;;;;14.73;48.06;97935.38;4219152;28;20377;-62
2022/04/07 10:14:37;;;;;;;8.67;3.33;;;;;;;14.63;48.66;97934.31;4224138;28;20307;-63
2022/04/07 10:17:05;;;;;;;9.53;3.93;;;;;;;14.84;47.64;97914.16;4224810;28;20246;-66
2022/04/07 10:19:44;;;;;;;9.57;3.60;;;;;;;14.84;49.09;97916.84;4235353;28;20239;-63
2022/04/07 10:22:26;;;;;;;7.87;3.53;;;;;;;15.09;47.56;97911.22;4224780;28;20247;-62
2022/04/07 10:25:02;;;;;;;11.07;3.60;;;;;;;15.22;46.52;97907.44;4196391;28;20263;-62
2022/04/07 10:27:35;;;;;;;6.73;3.77;;;;;;;15.07;47.40;97908.75;4214308;28;20425;-71
2022/04/07 10:30:09;;;;;;;7.83;3.83;;;;;;;14.93;47.37;97902.03;4208703;28;20244;-64
2022/04/07 10:32:40;;;;;;;13.93;3.60;;;;;;;14.85;47.94;97905.09;4215881;28;20236;-61
2022/04/07 10:35:08;;;;;;;16.63;4.13;;;;;;;14.99;48.17;97896.56;4216907;28;20260;-63
2022/04/07 10:37:47;;;;;;;11.33;4.10;;;;;;;15.16;47.09;97895.81;4211230;28;20892;-63
2022/04/07 10:40:40;;;;;;;6.73;3.33;;;;;;;15.08;47.01;97888.97;4190159;28;20753;-62
2022/04/07 10:43:22;;;;;;;13.90;4.23;;;;;;;14.98;48.13;97876.19;4199928;28;20323;-63
2022/04/07 10:46:07;;;;;;;6.17;3.47;;;;;;;15.04;47.82;97887.81;4216993;28;20342;-66
2022/04/07 10:48:35;;;;;;;9.87;3.87;;;;;;;15.27;48.10;97891.50;4231296;28;21660;-64
2022/04/07 10:51:05;;;;;;;12.67;3.83;;;;;;;15.25;47.14;97889.03;4183687;28;22975;-68
2022/04/07 10:53:39;;;;;;;9.40;3.40;;;;;;;15.15;47.34;97876.28;4207242;28;20237;-62
2022/04/07 10:56:25;;;;;;;10.67;3.67;;;;;;;15.31;48.18;97889.94;4210754;28;20390;-63
2022/04/07 10:58:55;;;;;;;5.00;2.67;;;;;;;15.49;46.18;97872.88;4211535;28;20595;-65
2022/04/07 11:01:33;;;;;;;5.17;2.73;;;;;;;15.54;46.68;97887.19;4192240;28;20236;-64
2022/04/07 11:04:21;;;;;;;5.53;2.77;;;;;;;15.53;45.78;97869.47;4194588;28;20303;-65
2022/04/07 11:07:10;;;;;;;8.00;3.17;;;;;;;15.44;47.29;97870.13;4224301;28;20662;-64
2022/04/07 11:09:55;;;;;;;5.80;2.77;;;;;;;14.91;47.90;97862.13;4219710;28;20350;-61
2022/04/07 11:12:29;;;;;;;6.73;2.70;;;;;;;14.82;49.54;97860.03;4222069;28;20525;-63
2022/04/07 11:15:02;;;;;;;5.97;2.90;;;;;;;15.23;48.69;97850.16;4215988;28;20716;-64
2022/04/07 11:17:32;;;;;;;4.63;2.83;;;;;;;15.46;47.25;97846.56;4209891;28;20236;-60
2022/04/07 11:20:04;;;;;;;9.87;3.37;;;;;;;15.54;46.51;97846.97;4214002;28;20233;-63
2022/04/07 11:22:47;;;;;;;7.37;3.23;;;;;;;15.43;46.61;97842.50;4218994;28;20243;-62
2022/04/07 11:25:37;;;;;;;8.03;3.00;;;;;;;15.52;46.77;97838.38;4191185;28;20241;-67
2022/04/07 11:28:17;;;;;;;6.10;2.70;;;;;;;15.67;46.05;97828.97;4212873;28;20450;-62
2022/04/07 11:30:52;;;;;;;6.37;2.70;;;;;;;15.60;45.47;97834.50;4213277;28;20236;-63
2022/04/07 11:36:00;;;;;;;9.00;2.97;;;;;;;15.68;46.00;97838.63;4248474;28;20240;-66
2022/04/07 11:38:29;;;;;;;4.53;2.87;;;;;;;15.70;46.51;97829.31;4204254;28;20255;-64
2022/04/07 11:41:06;;;;;;;9.83;3.17;;;;;;;15.75;45.39;97828.59;4199628;28;22903;-65